createdAt,value
2023-04-22T00:00:04.167Z,1
2023-04-22T00:01:04.031Z,1.15
2023-04-22T00:02:04.505Z,1.46
2023-04-22T00:03:04.885Z,1.36
2023-04-22T00:04:05.313Z,1.3
2023-04-22T00:05:04.139Z,0.85
2023-04-22T00:07:04.164Z,1.05
2023-04-22T00:08:04.064Z,1.38
2023-04-22T00:11:04.148Z,1.45
2023-04-22T00:12:04.536Z,1.26
2023-04-22T00:13:04.576Z,1.12
2023-04-22T00:14:03.962Z,1.63
2023-04-22T00:15:04.281Z,1.89
2023-04-22T00:16:03.893Z,1.63
2023-04-22T00:17:04.388Z,1.21
2023-04-22T00:20:04.200Z,1.88
2023-04-22T00:21:04.529Z,1.55
2023-04-22T00:22:04.698Z,1.19
2023-04-22T00:23:04.042Z,1.88
2023-04-22T00:24:04.380Z,1.07
2023-04-22T00:25:04.910Z,1.09
2023-04-22T00:26:03.723Z,1.09
2023-04-22T00:27:04.182Z,0.99
2023-04-22T00:28:04.240Z,1.69
2023-04-22T00:29:04.557Z,1
2023-04-22T00:30:03.937Z,1
2023-04-22T00:31:04.000Z,1.6
2023-04-22T00:32:04.264Z,2.16
2023-04-22T00:33:04.682Z,1.42
2023-04-22T00:34:03.909Z,1.78
2023-04-22T00:35:04.141Z,1.61
2023-04-22T00:36:04.742Z,1.96
2023-04-22T00:37:04.340Z,2.2
2023-04-22T00:38:04.635Z,1.43
2023-04-22T00:41:03.951Z,1.26
2023-04-22T00:42:04.163Z,1.63
2023-04-22T00:43:04.467Z,1.66
2023-04-22T00:44:04.669Z,1.73
2023-04-22T00:45:03.863Z,1.66
2023-04-22T00:46:03.901Z,1.26
2023-04-22T00:47:04.411Z,1.94
2023-04-22T00:48:04.680Z,1.81
2023-04-22T00:50:04.234Z,1.23
2023-04-22T00:51:03.957Z,1.42
2023-04-22T00:52:04.266Z,1.36
2023-04-22T00:53:04.336Z,1.71
2023-04-22T00:54:04.563Z,1.31
2023-04-22T00:55:04.776Z,1.11
2023-04-22T00:56:04.009Z,1.49
2023-04-22T00:57:04.207Z,1.05
2023-04-22T00:58:04.478Z,0.84
2023-04-22T00:59:04.653Z,1.26
2023-04-22T01:02:04.442Z,1.25
2023-04-22T01:03:04.837Z,1.24
2023-04-22T01:04:04.004Z,1.54
2023-04-22T01:05:04.287Z,1.4
2023-04-22T01:06:04.620Z,1.28
2023-04-22T01:07:04.059Z,1.64
2023-04-22T01:08:04.222Z,1.6
2023-04-22T01:09:04.627Z,1.42
2023-04-22T01:10:03.775Z,1.78
2023-04-22T01:11:04.666Z,1.53
2023-04-22T01:12:03.788Z,1.42
2023-04-22T01:13:04.155Z,1.34
2023-04-22T01:14:04.304Z,0.83
2023-04-22T01:15:07.045Z,1.25
2023-04-22T01:17:04.079Z,2.48
2023-04-22T01:18:04.373Z,1.08
2023-04-22T01:19:04.731Z,1.08
2023-04-22T01:20:03.956Z,1.04
2023-04-22T01:21:04.370Z,1.33
2023-04-22T01:22:04.395Z,1.09
2023-04-22T01:23:04.712Z,0.99
2023-04-22T01:24:04.119Z,1.12
2023-04-22T01:25:04.281Z,0.77
2023-04-22T01:26:04.142Z,1.61
2023-04-22T01:27:04.301Z,0.82
2023-04-22T01:28:04.582Z,1.15
2023-04-22T01:29:04.856Z,1.44
2023-04-22T01:30:03.998Z,1.33
2023-04-22T01:31:04.659Z,0.96
2023-04-22T01:32:04.045Z,1.99
2023-04-22T01:33:04.238Z,1.14
2023-04-22T01:36:03.907Z,1.98
2023-04-22T01:38:04.580Z,1.22
2023-04-22T01:39:04.913Z,1.77
2023-04-22T01:40:03.992Z,1.22
2023-04-22T01:41:04.215Z,1.31
2023-04-22T01:42:04.675Z,1.1
2023-04-22T01:45:04.784Z,1.08
2023-04-22T01:46:04.089Z,0.88
2023-04-22T01:47:04.308Z,2.1
2023-04-22T01:48:04.806Z,1.09
2023-04-22T01:49:04.783Z,1.41
2023-04-22T01:50:04.029Z,1.6
2023-04-22T01:51:04.220Z,1.21
2023-04-22T01:52:04.458Z,1.53
2023-04-22T01:53:04.400Z,1.25
2023-04-22T01:59:03.946Z,1.47
2023-04-22T02:00:04.339Z,1.24
2023-04-22T02:01:04.092Z,1.5
2023-04-22T02:02:04.350Z,1.58
2023-04-22T02:03:05.141Z,1.25
2023-04-22T02:04:03.982Z,1.46
2023-04-22T02:05:04.400Z,1.36
2023-04-22T02:06:04.210Z,1.36
2023-04-22T02:07:04.409Z,1.71
2023-04-22T02:08:03.949Z,1.71
2023-04-22T02:09:04.056Z,1.54
2023-04-22T02:10:04.412Z,1.8
2023-04-22T02:11:04.691Z,1.22
2023-04-22T02:12:04.204Z,1.69
2023-04-22T02:13:04.389Z,1.62
2023-04-22T02:14:04.650Z,0.87
2023-04-22T02:15:03.990Z,1.7
2023-04-22T02:16:04.311Z,1.1
2023-04-22T02:17:04.570Z,1.28
2023-04-22T02:22:04.011Z,1.43
2023-04-22T02:23:04.469Z,1.18
2023-04-22T02:24:04.501Z,1.32
2023-04-22T02:25:04.909Z,1.75
2023-04-22T02:26:04.761Z,1.44
2023-04-22T02:28:04.420Z,0.94
2023-04-22T02:29:04.331Z,2.59
2023-04-22T02:30:04.701Z,1.81
2023-04-22T02:31:04.880Z,1.58
2023-04-22T02:32:03.919Z,1.49
2023-04-22T02:33:04.341Z,1.61
2023-04-22T02:34:04.404Z,1.27
2023-04-22T02:35:04.876Z,1.1
2023-04-22T02:39:04.717Z,1.11
2023-04-22T02:40:03.925Z,1.24
2023-04-22T02:41:04.267Z,1.37
2023-04-22T02:42:04.492Z,1.7
2023-04-22T02:43:04.113Z,2.33
2023-04-22T02:44:04.209Z,1.48
2023-04-22T02:45:04.588Z,1.65
2023-04-22T02:46:03.915Z,1.18
2023-04-22T02:47:04.217Z,1.54
2023-04-22T02:48:04.398Z,1.29
2023-04-22T02:49:04.575Z,1.29
2023-04-22T02:50:04.698Z,1.4
2023-04-22T02:51:03.924Z,1.08
2023-04-22T02:52:04.235Z,2.84
2023-04-22T02:53:04.762Z,1.12
2023-04-22T02:55:04.549Z,1.35
2023-04-22T02:56:04.391Z,0.92
2023-04-22T02:57:04.697Z,0.92
2023-04-22T02:58:03.974Z,1.48
2023-04-22T02:59:04.222Z,2.09
2023-04-22T03:00:04.559Z,1.88
2023-04-22T03:01:04.096Z,1.88
2023-04-22T03:02:07.416Z,1.49
2023-04-22T03:04:04.206Z,1.29
2023-04-22T03:05:04.215Z,0.91
2023-04-22T03:06:04.273Z,1.14
2023-04-22T03:07:04.470Z,1.09
2023-04-22T03:08:04.424Z,1.63
2023-04-22T03:13:03.891Z,1.02
2023-04-22T03:14:03.986Z,0.79
2023-04-22T03:15:04.467Z,0.95
2023-04-22T03:16:04.296Z,1.26
2023-04-22T03:17:05.071Z,1.3
2023-04-22T03:19:03.786Z,1.04
2023-04-22T03:20:04.397Z,1.15
2023-04-22T03:21:03.969Z,1.65
2023-04-22T03:22:04.348Z,1.9
2023-04-22T03:23:04.446Z,1.14
2023-04-22T03:24:04.707Z,1.39
2023-04-22T03:25:03.951Z,1.24
2023-04-22T03:26:04.099Z,1.83
2023-04-22T03:27:04.653Z,2.95
2023-04-22T03:28:03.902Z,1.15
2023-04-22T03:29:04.281Z,1.24
2023-04-22T03:30:04.232Z,1.68
2023-04-22T03:35:04.834Z,1.04
2023-04-22T03:36:04.137Z,1.16
2023-04-22T03:37:04.541Z,1.46
2023-04-22T03:38:04.663Z,1.87
2023-04-22T03:39:03.690Z,1.82
2023-04-22T03:40:04.100Z,1.46
2023-04-22T03:41:04.340Z,1.02
2023-04-22T03:42:04.452Z,1.59
2023-04-22T03:43:04.743Z,1.02
2023-04-22T03:44:03.948Z,0.99
2023-04-22T03:45:04.435Z,1.45
2023-04-22T03:47:05.077Z,0.86
2023-04-22T03:49:04.045Z,2.01
2023-04-22T03:50:04.198Z,2.01
2023-04-22T03:51:04.314Z,1.76
2023-04-22T03:52:04.586Z,1.84
2023-04-22T03:53:04.729Z,0.99
2023-04-22T03:54:04.003Z,1.26
2023-04-22T03:55:04.257Z,1.06
2023-04-22T03:56:04.362Z,2.36
2023-04-22T03:57:04.730Z,1.25
2023-04-22T03:58:04.013Z,1.86
2023-04-22T03:59:04.238Z,0.92
2023-04-22T04:00:04.537Z,1.52
2023-04-22T04:05:04.165Z,1.37
2023-04-22T04:06:04.617Z,1.3
2023-04-22T04:08:04.658Z,1.01
2023-04-22T04:09:04.131Z,1.25
2023-04-22T04:10:04.435Z,0.95
2023-04-22T04:11:04.264Z,1
2023-04-22T04:13:04.213Z,1.12
2023-04-22T04:14:04.228Z,1.55
2023-04-22T04:15:04.712Z,1.31
2023-04-22T04:16:03.664Z,1.21
2023-04-22T04:17:04.121Z,1.29
2023-04-22T04:18:04.532Z,1.48
2023-04-22T04:19:04.776Z,1.42
2023-04-22T04:20:03.866Z,1.27
2023-04-22T04:21:03.970Z,0.88
2023-04-22T04:22:04.453Z,1.19
2023-04-22T04:23:04.634Z,1.11
2023-04-22T04:24:04.918Z,1.34
2023-04-22T04:25:03.836Z,1.51
2023-04-22T04:26:04.493Z,0.85
2023-04-22T04:27:04.717Z,1.31
2023-04-22T04:28:03.988Z,1.78
2023-04-22T04:29:04.285Z,1.2
2023-04-22T04:30:04.784Z,1.49
2023-04-22T04:31:03.977Z,1.3
2023-04-22T04:32:04.152Z,1.25
2023-04-22T04:33:04.675Z,1.24
2023-04-22T04:34:04.858Z,2.01
2023-04-22T04:35:04.123Z,1.2
2023-04-22T04:36:04.335Z,1.06
2023-04-22T04:37:04.464Z,1.01
2023-04-22T04:38:03.957Z,1.88
2023-04-22T04:39:04.209Z,1.88
2023-04-22T04:40:04.520Z,1.39
2023-04-22T04:41:04.587Z,1.84
2023-04-22T04:44:04.372Z,1.28
2023-04-22T04:45:04.635Z,1.33
2023-04-22T04:46:03.998Z,1.45
2023-04-22T04:47:04.417Z,1.39
2023-04-22T04:48:04.388Z,1.99
2023-04-22T04:49:04.708Z,2.02
2023-04-22T04:50:03.737Z,1.09
2023-04-22T04:51:04.003Z,1.33
2023-04-22T04:52:04.373Z,1.12
2023-04-22T04:53:04.486Z,1.04
2023-04-22T04:54:04.856Z,1.11
2023-04-22T04:55:04.194Z,1.46
2023-04-22T05:00:04.089Z,1.45
2023-04-22T05:01:04.408Z,2.19
2023-04-22T05:02:05.055Z,1.38
2023-04-22T05:03:04.109Z,1.5
2023-04-22T05:04:04.975Z,1.12
2023-04-22T05:05:04.133Z,1.04
2023-04-22T05:06:04.229Z,1.19
2023-04-22T05:07:04.517Z,0.93
2023-04-22T05:08:04.741Z,1.54
2023-04-22T05:09:04.142Z,1.34
2023-04-22T05:10:04.459Z,1.31
2023-04-22T05:11:04.535Z,1.75
2023-04-22T05:12:04.832Z,1.31
2023-04-22T05:13:04.470Z,1.48
2023-04-22T05:14:04.142Z,1.02
2023-04-22T05:15:04.397Z,1.29
2023-04-22T05:16:04.685Z,1.81
2023-04-22T05:17:04.057Z,0.82
2023-04-22T05:18:04.374Z,1.09
2023-04-22T05:19:04.708Z,1.58
2023-04-22T05:20:04.647Z,1.62
2023-04-22T05:22:04.416Z,2.36
2023-04-22T05:23:04.793Z,1.02
2023-04-22T05:24:03.766Z,1.21
2023-04-22T05:25:04.213Z,1.39
2023-04-22T05:26:04.463Z,1.58
2023-04-22T05:27:04.694Z,1.61
2023-04-22T05:28:03.799Z,1.42
2023-04-22T05:29:04.181Z,1.42
2023-04-22T05:30:04.384Z,1.89
2023-04-22T05:31:03.760Z,1.97
2023-04-22T05:32:04.485Z,1.97
2023-04-22T05:33:04.547Z,1.41
2023-04-22T05:34:04.608Z,1.27
2023-04-22T05:35:03.493Z,1.02
2023-04-22T05:36:04.478Z,2.02
2023-04-22T05:37:04.716Z,1.24
2023-04-22T05:38:03.898Z,1.25
2023-04-22T05:39:04.125Z,1.67
2023-04-22T05:40:04.628Z,1.13
2023-04-22T05:42:04.178Z,1.12
2023-04-22T05:43:04.824Z,1.22
2023-04-22T05:44:04.017Z,1.21
2023-04-22T05:45:04.353Z,2.14
2023-04-22T05:46:04.812Z,1.09
2023-04-22T05:47:03.897Z,1.27
2023-04-22T05:48:04.341Z,1.52
2023-04-22T05:49:04.399Z,1.68
2023-04-22T05:50:04.909Z,1.91
2023-04-22T05:51:04.012Z,1.23
2023-04-22T05:52:04.212Z,1.62
2023-04-22T05:53:04.292Z,1.35
2023-04-22T05:54:04.761Z,1.69
2023-04-22T05:55:04.950Z,1.08
2023-04-22T05:59:04.604Z,1.25
2023-04-22T06:01:03.933Z,2.45
2023-04-22T06:02:04.292Z,1.34
2023-04-22T06:03:04.577Z,1.93
2023-04-22T06:04:05.438Z,1.02
2023-04-22T06:05:04.299Z,1.07
2023-04-22T06:06:04.247Z,1.07
2023-04-22T06:07:04.491Z,1.55
2023-04-22T06:08:04.563Z,1.94
2023-04-22T06:09:03.919Z,0.99
2023-04-22T06:10:05.286Z,1.34
2023-04-22T06:11:04.330Z,0.84
2023-04-22T06:12:04.828Z,1.43
2023-04-22T06:13:03.958Z,1.21
2023-04-22T06:14:04.096Z,1.21
2023-04-22T06:15:04.416Z,1.52
2023-04-22T06:16:04.911Z,1.64
2023-04-22T06:17:04.147Z,1.84
2023-04-22T06:18:04.444Z,1.03
2023-04-22T06:19:04.817Z,1.41
2023-04-22T06:20:04.012Z,1.28
2023-04-22T06:21:04.068Z,1.65
2023-04-22T06:22:04.286Z,1.21
2023-04-22T06:23:04.629Z,1.02
2023-04-22T06:24:04.750Z,1.66
2023-04-22T06:25:04.024Z,1.24
2023-04-22T06:26:04.277Z,0.84
2023-04-22T06:27:04.498Z,1.23
2023-04-22T06:28:04.776Z,1.59
2023-04-22T06:29:03.739Z,2.42
2023-04-22T06:30:04.446Z,2
2023-04-22T06:31:04.613Z,1.08
2023-04-22T06:33:03.937Z,1.24
2023-04-22T06:34:04.257Z,1.22
2023-04-22T06:35:04.535Z,0.92
2023-04-22T06:36:04.534Z,1.05
2023-04-22T06:37:04.756Z,1.15
2023-04-22T06:38:03.808Z,1.02
2023-04-22T06:39:04.339Z,1.24
2023-04-22T06:40:04.808Z,1.29
2023-04-22T06:41:04.070Z,1.44
2023-04-22T06:42:04.319Z,1.08
2023-04-22T06:43:04.532Z,1.05
2023-04-22T06:44:03.862Z,1.25
2023-04-22T06:45:04.145Z,1.15
2023-04-22T06:46:04.060Z,1.56
2023-04-22T06:47:04.420Z,0.9
2023-04-22T06:48:04.718Z,0.98
2023-04-22T06:50:04.602Z,0.91
2023-04-22T06:51:04.514Z,1.19
2023-04-22T06:52:04.624Z,1.58
2023-04-22T06:57:04.055Z,1.1
2023-04-22T06:58:04.207Z,1.28
2023-04-22T06:59:04.146Z,1.42
2023-04-22T07:00:04.577Z,1.19
2023-04-22T07:01:03.851Z,0.81
2023-04-22T07:02:04.147Z,0.89
2023-04-22T07:03:04.533Z,2.05
2023-04-22T07:04:04.627Z,1.34
2023-04-22T07:05:04.924Z,0.96
2023-04-22T07:06:04.095Z,1.22
2023-04-22T07:07:04.270Z,1.54
2023-04-22T07:08:04.456Z,0.96
2023-04-22T07:09:04.722Z,1.11
2023-04-22T07:10:03.908Z,0.95
2023-04-22T07:13:04.320Z,1.44
2023-04-22T07:14:04.690Z,1.19
2023-04-22T07:15:03.425Z,0.95
2023-04-22T07:16:04.780Z,1.54
2023-04-22T07:17:04.104Z,1.34
2023-04-22T07:21:04.014Z,1.29
2023-04-22T07:22:04.116Z,1.25
2023-04-22T07:23:04.622Z,0.95
2023-04-22T07:24:04.869Z,0.92
2023-04-22T07:25:04.636Z,1.68
2023-04-22T07:27:04.423Z,1.37
2023-04-22T07:28:04.626Z,1.06
2023-04-22T07:29:03.777Z,1.26
2023-04-22T07:30:04.252Z,1.42
2023-04-22T07:31:04.488Z,1.09
2023-04-22T07:32:04.897Z,1.59
2023-04-22T07:33:04.218Z,1.59
2023-04-22T07:34:04.517Z,1.29
2023-04-22T07:35:03.921Z,1.29
2023-04-22T07:36:04.277Z,1.16
2023-04-22T07:37:04.553Z,1.31
2023-04-22T07:38:04.386Z,0.91
2023-04-22T07:40:04.114Z,1.33
2023-04-22T07:41:04.346Z,0.9
2023-04-22T07:42:04.606Z,1.2
2023-04-22T07:43:03.796Z,1.21
2023-04-22T07:44:04.021Z,0.94
2023-04-22T07:45:04.193Z,1.18
2023-04-22T07:46:04.598Z,1.39
2023-04-22T07:48:04.402Z,1.07
2023-04-22T07:49:04.423Z,1.39
2023-04-22T07:50:04.823Z,1.06
2023-04-22T07:51:04.587Z,1.15
2023-04-22T07:53:04.195Z,1.79
2023-04-22T07:54:04.366Z,1.22
2023-04-22T07:55:04.645Z,0.98
2023-04-22T07:56:03.809Z,1.13
2023-04-22T07:57:04.046Z,1.61
2023-04-22T07:58:04.217Z,0.75
2023-04-22T07:59:04.799Z,1.35
2023-04-22T08:00:04.019Z,1.48
2023-04-22T08:01:04.093Z,0.99
2023-04-22T08:02:04.716Z,0.98
2023-04-22T08:03:05.027Z,1.39
2023-04-22T08:04:03.961Z,1.04
2023-04-22T08:05:04.308Z,1.09
2023-04-22T08:06:04.313Z,1.05
2023-04-22T08:07:30.719Z,0.89
2023-04-22T08:08:04.190Z,1.56
2023-04-22T08:09:04.283Z,1.58
2023-04-22T08:10:04.791Z,1.58
2023-04-22T08:11:03.855Z,0.78
2023-04-22T08:12:04.097Z,1.12
2023-04-22T08:13:04.388Z,1.26
2023-04-22T08:14:04.467Z,1.05
2023-04-22T08:15:04.857Z,1.25
2023-04-22T08:16:04.696Z,1.35
2023-04-22T08:20:05.890Z,0.56
2023-04-22T08:21:04.784Z,0.94
2023-04-22T08:22:03.929Z,0.82
2023-04-22T08:23:04.219Z,1.35
2023-04-22T08:24:04.321Z,1.18
2023-04-22T08:25:04.561Z,1.12
2023-04-22T08:26:04.926Z,1.31
2023-04-22T08:27:03.992Z,1.04
2023-04-22T08:28:04.318Z,0.81
2023-04-22T08:29:04.475Z,1.21
2023-04-22T08:30:04.605Z,1.06
2023-04-22T08:31:04.547Z,1.18
2023-04-22T08:35:07.828Z,1.08
2023-04-22T08:36:04.127Z,1.49
2023-04-22T08:37:04.389Z,1.45
2023-04-22T08:38:04.536Z,1.16
2023-04-22T08:39:03.753Z,1.1
2023-04-22T08:40:04.191Z,0.75
2023-04-22T08:41:04.417Z,0.96
2023-04-22T08:42:03.649Z,1.21
2023-04-22T08:43:04.387Z,0.95
2023-04-22T08:44:04.251Z,0.82
2023-04-22T08:45:04.776Z,1.39
2023-04-22T08:46:04.073Z,0.95
2023-04-22T08:47:05.395Z,2.4
2023-04-22T08:50:04.071Z,1.64
2023-04-22T08:51:04.352Z,0.99
2023-04-22T08:52:04.385Z,0.99
2023-04-22T08:53:03.784Z,1.04
2023-04-22T08:54:03.870Z,0.98
2023-04-22T08:55:04.150Z,1.46
2023-04-22T08:56:05.033Z,1.07
2023-04-22T08:57:04.061Z,1.16
2023-04-22T08:58:04.318Z,1.37
2023-04-22T08:59:04.512Z,2.06
2023-04-22T09:00:04.098Z,1.62
2023-04-22T09:01:04.398Z,1.58
2023-04-22T09:02:04.738Z,1.35
2023-04-22T09:03:03.864Z,1.26
2023-04-22T09:04:04.434Z,0.92
2023-04-22T09:05:04.395Z,1.24
2023-04-22T09:06:04.983Z,1.36
2023-04-22T09:07:04.117Z,1.12
2023-04-22T09:08:04.265Z,1.45
2023-04-22T09:09:04.443Z,1.28
2023-04-22T09:10:04.773Z,0.96
2023-04-22T09:11:04.093Z,1.54
2023-04-22T09:12:04.172Z,0.93
2023-04-22T09:13:04.778Z,1.14
2023-04-22T09:14:03.906Z,1.14
2023-04-22T09:15:04.319Z,0.92
2023-04-22T09:16:04.822Z,1.54
2023-04-22T09:18:03.978Z,1.06
2023-04-22T09:19:04.410Z,1.11
2023-04-22T09:20:04.591Z,1.04
2023-04-22T09:21:04.867Z,1.41
2023-04-22T09:22:04.162Z,0.76
2023-04-22T09:23:04.193Z,0.88
2023-04-22T09:24:04.684Z,0.62
2023-04-22T09:25:04.916Z,0.76
2023-04-22T09:26:03.899Z,1.12
2023-04-22T09:27:04.327Z,0.65
2023-04-22T09:28:04.672Z,1.05
2023-04-22T09:29:04.740Z,1.1
2023-04-22T09:30:04.111Z,0.66
2023-04-22T09:31:04.271Z,1.34
2023-04-22T09:32:04.508Z,1.21
2023-04-22T09:33:04.911Z,0.68
2023-04-22T09:34:03.896Z,0.68
2023-04-22T09:35:04.153Z,1.04
2023-04-22T09:36:04.289Z,0.89
2023-04-22T09:37:04.482Z,0.59
2023-04-22T09:38:04.833Z,1.31
2023-04-22T09:39:03.999Z,0.64
2023-04-22T09:40:04.301Z,1.21
2023-04-22T09:41:04.648Z,0.83
2023-04-22T09:42:03.820Z,1.25
2023-04-22T09:43:04.161Z,1.25
2023-04-22T09:44:04.254Z,0.56
2023-04-22T09:45:04.701Z,0.56
2023-04-22T09:46:04.398Z,0.6
2023-04-22T09:47:04.580Z,1.01
2023-04-22T09:48:04.930Z,1.01
2023-04-22T09:49:04.244Z,0.6
2023-04-22T09:50:04.588Z,1.07
2023-04-22T09:51:04.757Z,1.01
2023-04-22T09:52:03.708Z,1.28
2023-04-22T09:53:04.255Z,0.98
2023-04-22T09:54:04.518Z,0.81
2023-04-22T09:55:04.740Z,0.96
2023-04-22T09:56:03.705Z,0.72
2023-04-22T09:57:04.455Z,0.76
2023-04-22T09:58:04.757Z,0.49
2023-04-22T09:59:04.130Z,0.77
2023-04-22T10:00:04.457Z,0.38
2023-04-22T10:01:04.794Z,0.55
2023-04-22T10:02:04.162Z,0.54
2023-04-22T10:03:04.568Z,0.74
2023-04-22T10:04:04.656Z,0.51
2023-04-22T10:05:04.709Z,1.01
2023-04-22T10:06:03.897Z,0.65
2023-04-22T10:07:04.254Z,0.69
2023-04-22T10:08:04.846Z,0.54
2023-04-22T10:09:03.923Z,0.36
2023-04-22T10:10:04.194Z,0.71
2023-04-22T10:11:04.539Z,1.41
2023-04-22T10:12:04.677Z,0.99
2023-04-22T10:13:04.050Z,0.36
2023-04-22T10:14:04.172Z,0.93
2023-04-22T10:15:04.608Z,0.99
2023-04-22T10:16:04.158Z,0.92
2023-04-22T10:17:04.717Z,0.81
2023-04-22T10:18:03.842Z,0.59
2023-04-22T10:19:04.121Z,0.85
2023-04-22T10:20:04.287Z,0.89
2023-04-22T10:21:04.548Z,0.78
2023-04-22T10:22:04.859Z,0.66
2023-04-22T10:23:03.849Z,1.08
2023-04-22T10:24:04.068Z,0.72
2023-04-22T10:25:04.330Z,0.84
2023-04-22T10:26:04.206Z,0.69
2023-04-22T10:27:04.505Z,0.45
2023-04-22T10:28:04.557Z,0.54
2023-04-22T10:29:04.049Z,0.88
2023-04-22T10:30:04.530Z,0.73
2023-04-22T10:31:04.747Z,0.38
2023-04-22T10:32:04.052Z,0.61
2023-04-22T10:33:04.330Z,0.45
2023-04-22T10:34:04.344Z,1.02
2023-04-22T10:35:04.803Z,0.69
2023-04-22T10:36:03.890Z,0.58
2023-04-22T10:37:04.135Z,0.71
2023-04-22T10:38:04.313Z,0.78
2023-04-22T10:39:04.667Z,0.71
2023-04-22T10:40:03.935Z,0.54
2023-04-22T10:41:04.177Z,0.78
2023-04-22T10:42:04.511Z,0.5
2023-04-22T10:43:04.701Z,0.47
2023-04-22T10:44:04.595Z,0.39
2023-04-22T10:46:04.163Z,0.99
2023-04-22T10:47:04.346Z,0.49
2023-04-22T10:48:04.466Z,0.93
2023-04-22T10:49:06.649Z,0.82
2023-04-22T10:50:04.002Z,0.39
2023-04-22T10:51:04.159Z,0.41
2023-04-22T10:52:04.426Z,0.45
2023-04-22T10:53:04.689Z,0.77
2023-04-22T10:54:04.019Z,0.72
2023-04-22T10:55:04.047Z,0.78
2023-04-22T10:56:04.193Z,0.52
2023-04-22T10:57:04.487Z,0.51
2023-04-22T10:58:04.704Z,0.51
2023-04-22T10:59:04.102Z,0.73
2023-04-22T11:00:04.373Z,0.55
2023-04-22T11:01:04.131Z,0.68
2023-04-22T11:02:04.338Z,0.34
2023-04-22T11:03:04.953Z,1.07
2023-04-22T11:05:03.992Z,0.49
2023-04-22T11:06:04.659Z,0.49
2023-04-22T11:07:03.896Z,0.75
2023-04-22T11:08:04.106Z,0.62
2023-04-22T11:09:04.332Z,0.62
2023-04-22T11:10:04.042Z,0.62
2023-04-22T11:11:04.188Z,0.72
2023-04-22T11:12:04.669Z,0.62
2023-04-22T11:13:03.830Z,0.52
2023-04-22T11:14:04.209Z,0.78
2023-04-22T11:15:04.447Z,0.38
2023-04-22T11:16:04.778Z,0.48
2023-04-22T11:17:04.092Z,0.72
2023-04-22T11:18:04.484Z,0.54
2023-04-22T11:19:04.809Z,0.68
2023-04-22T11:20:03.989Z,0.87
2023-04-22T11:25:03.927Z,0.81
2023-04-22T11:26:04.520Z,0.7
2023-04-22T11:27:04.134Z,0.95
2023-04-22T11:28:04.335Z,0.49
2023-04-22T11:29:04.280Z,0.44
2023-04-22T11:30:04.850Z,0.75
2023-04-22T11:31:04.582Z,0.51
2023-04-22T11:32:04.965Z,0.59
2023-04-22T11:33:04.062Z,1.22
2023-04-22T11:34:04.441Z,0.75
2023-04-22T11:35:04.722Z,0.67
2023-04-22T11:36:04.597Z,0.5
2023-04-22T11:40:31.723Z,0.41
2023-04-22T11:41:04.546Z,0.7
2023-04-22T11:42:03.868Z,0.68
2023-04-22T11:43:04.381Z,0.95
2023-04-22T11:44:04.614Z,0.44
2023-04-22T11:45:04.855Z,0.67
2023-04-22T11:46:03.943Z,0.52
2023-04-22T11:47:04.173Z,0.76
2023-04-22T11:48:04.580Z,0.55
2023-04-22T11:49:04.601Z,0.7
2023-04-22T11:50:03.775Z,0.62
2023-04-22T11:51:04.180Z,0.98
2023-04-22T11:52:04.391Z,0.46
2023-04-22T11:53:04.738Z,0.62
2023-04-22T11:54:03.933Z,1
2023-04-22T11:55:04.089Z,0.55
2023-04-22T11:56:04.284Z,0.65
2023-04-22T11:57:04.487Z,0.62
2023-04-22T11:58:04.707Z,0.5
2023-04-22T11:59:04.037Z,0.9
2023-04-22T12:00:04.506Z,0.65
2023-04-22T12:01:03.988Z,0.42
2023-04-22T12:02:04.307Z,0.61
2023-04-22T12:03:04.824Z,0.47
2023-04-22T12:04:05.105Z,0.7
2023-04-22T12:05:04.184Z,0.59
2023-04-22T12:06:04.433Z,0.68
2023-04-22T12:07:04.719Z,0.39
2023-04-22T12:08:03.989Z,0.8
2023-04-22T12:09:04.270Z,0.52
2023-04-22T12:10:04.535Z,0.61
2023-04-22T12:11:04.662Z,0.86
2023-04-22T12:12:04.766Z,0.64
2023-04-22T12:13:03.994Z,0.59
2023-04-22T12:14:04.213Z,0.52
2023-04-22T12:15:04.481Z,0.95
2023-04-22T12:16:04.589Z,0.76
2023-04-22T12:17:03.916Z,0.46
2023-04-22T12:18:04.200Z,0.8
2023-04-22T12:21:04.789Z,0.74
2023-04-22T12:22:03.861Z,0.55
2023-04-22T12:23:04.140Z,0.38
2023-04-22T12:24:04.395Z,0.65
2023-04-22T12:25:04.656Z,0.62
2023-04-22T12:26:03.998Z,0.62
2023-04-22T12:27:04.207Z,0.82
2023-04-22T12:28:04.317Z,0.51
2023-04-22T12:29:04.607Z,0.85
2023-04-22T12:30:04.104Z,0.85
2023-04-22T12:31:04.301Z,0.48
2023-04-22T12:32:04.700Z,0.46
2023-04-22T12:33:03.860Z,0.46
2023-04-22T12:34:04.278Z,0.56
2023-04-22T12:35:04.267Z,0.34
2023-04-22T12:36:04.837Z,0.87
2023-04-22T12:37:03.994Z,0.56
2023-04-22T12:38:04.388Z,0.42
2023-04-22T12:39:04.589Z,0.52
2023-04-22T12:44:03.792Z,0.31
2023-04-22T12:45:03.971Z,0.39
2023-04-22T12:46:04.422Z,0.48
2023-04-22T12:47:04.265Z,0.37
2023-04-22T12:48:04.578Z,0.29
2023-04-22T12:49:03.908Z,0.52
2023-04-22T12:50:04.272Z,0.44
2023-04-22T12:51:03.951Z,0.69
2023-04-22T12:52:04.107Z,0.32
2023-04-22T12:53:04.889Z,0.24
2023-04-22T12:54:04.119Z,0.36
2023-04-22T12:55:04.335Z,0.67
2023-04-22T12:56:04.207Z,0.75
2023-04-22T12:57:04.454Z,0.38
2023-04-22T12:58:04.482Z,0.45
2023-04-22T12:59:04.968Z,0.48
2023-04-22T13:00:04.078Z,0.52
2023-04-22T13:01:04.336Z,0.38
2023-04-22T13:02:04.674Z,0.53
2023-04-22T13:03:04.002Z,0.41
2023-04-22T13:04:04.489Z,0.56
2023-04-22T13:05:04.458Z,0.64
2023-04-22T13:06:03.803Z,0.76
2023-04-22T13:07:03.880Z,0.54
2023-04-22T13:08:09.624Z,0.57
2023-04-22T13:10:04.826Z,0.34
2023-04-22T13:11:03.979Z,0.49
2023-04-22T13:12:04.051Z,0.48
2023-04-22T13:13:19.457Z,0.41
2023-04-22T13:15:04.774Z,0.62
2023-04-22T13:16:03.989Z,0.41
2023-04-22T13:17:04.344Z,0.42
2023-04-22T13:18:04.676Z,0.32
2023-04-22T13:23:03.740Z,0.59
2023-04-22T13:24:04.099Z,0.69
2023-04-22T13:25:04.360Z,0.96
2023-04-22T13:26:04.508Z,0.22
2023-04-22T13:27:04.628Z,0.42
2023-04-22T13:28:04.157Z,0.31
2023-04-22T13:29:05.095Z,0.59
2023-04-22T13:31:03.923Z,0.29
2023-04-22T13:32:04.182Z,0.42
2023-04-22T13:33:04.405Z,0.66
2023-04-22T13:35:03.916Z,0.33
2023-04-22T13:36:04.164Z,0.61
2023-04-22T13:37:04.254Z,0.36
2023-04-22T13:38:04.781Z,0.63
2023-04-22T13:39:03.701Z,0.41
2023-04-22T13:40:04.408Z,0.5
2023-04-22T13:41:05.645Z,0.53
2023-04-22T13:43:03.939Z,0.76
2023-04-22T13:44:04.161Z,0.3
2023-04-22T13:45:04.468Z,0.58
2023-04-22T13:46:03.991Z,0.26
2023-04-22T13:47:05.093Z,0.35
2023-04-22T13:49:04.826Z,0.29
2023-04-22T13:50:03.968Z,0.65
2023-04-22T13:54:04.239Z,0.4
2023-04-22T13:56:04.391Z,0.28
2023-04-22T13:57:04.781Z,0.74
2023-04-22T13:58:03.926Z,1.18
2023-04-22T13:59:04.350Z,0.23
2023-04-22T14:00:04.814Z,0.26
2023-04-22T14:01:04.452Z,0.45
2023-04-22T14:03:04.161Z,0.64
2023-04-22T14:04:04.424Z,0.51
2023-04-22T14:05:04.103Z,0.38
2023-04-22T14:06:04.653Z,0.46
2023-04-22T14:07:04.612Z,0.59
2023-04-22T14:11:04.037Z,0.47
2023-04-22T14:12:04.453Z,0.36
2023-04-22T14:13:04.592Z,0.41
2023-04-22T14:14:03.986Z,0.24
2023-04-22T14:15:04.230Z,0.36
2023-04-22T14:16:04.519Z,0.35
2023-04-22T14:17:05.076Z,0.23
2023-04-22T14:18:03.883Z,0.41
2023-04-22T14:19:04.048Z,0.37
2023-04-22T14:20:04.395Z,0.76
2023-04-22T14:21:04.715Z,0.49
2023-04-22T14:22:04.033Z,0.24
2023-04-22T14:23:04.404Z,0.5
2023-04-22T14:24:04.557Z,0.24
2023-04-22T14:25:03.700Z,0.21
2023-04-22T14:29:04.034Z,0.2
2023-04-22T14:30:04.172Z,0.53
2023-04-22T14:31:04.876Z,0.28
2023-04-22T14:32:03.875Z,0.31
2023-04-22T14:33:04.215Z,0.67
2023-04-22T14:34:04.244Z,0.61
2023-04-22T14:35:04.544Z,0.55
2023-04-22T14:36:04.107Z,0.35
2023-04-22T14:37:04.224Z,0.25
2023-04-22T14:38:04.567Z,0.27
2023-04-22T14:39:04.864Z,0.27
2023-04-22T14:40:04.121Z,0.41
2023-04-22T14:41:04.356Z,0.34
2023-04-22T14:42:04.529Z,0.29
2023-04-22T14:43:03.946Z,0.33
2023-04-22T14:44:04.327Z,0.3
2023-04-22T14:45:04.469Z,0.5
2023-04-22T14:46:03.904Z,0.48
2023-04-22T14:47:03.929Z,0.25
2023-04-22T14:48:04.641Z,0.36
2023-04-22T14:49:04.626Z,0.33
2023-04-22T14:50:04.054Z,0.26
2023-04-22T14:51:04.250Z,0.28
2023-04-22T14:52:04.729Z,0.21
2023-04-22T14:53:03.602Z,0.51
2023-04-22T14:54:04.064Z,0.69
2023-04-22T14:55:23.015Z,0.34
2023-04-22T14:56:03.818Z,1.18
2023-04-22T14:57:03.915Z,0.4
2023-04-22T14:58:04.397Z,0.56
2023-04-22T14:59:04.544Z,0.28
2023-04-22T15:00:05.016Z,0.53
2023-04-22T15:01:04.698Z,0.4
2023-04-22T15:02:04.285Z,0.54
2023-04-22T15:03:05.029Z,0.47
2023-04-22T15:04:04.062Z,0.36
2023-04-22T15:05:04.284Z,0.38
2023-04-22T15:06:04.273Z,0.25
2023-04-22T15:07:06.254Z,0.46
2023-04-22T15:08:03.902Z,0.37
2023-04-22T15:09:04.112Z,0.29
2023-04-22T15:10:04.755Z,0.45
2023-04-22T15:11:04.060Z,0.42
2023-04-22T15:12:04.512Z,0.65
2023-04-22T15:13:04.740Z,0.38
2023-04-22T15:14:04.042Z,0.36
2023-04-22T15:16:04.767Z,0.54
2023-04-22T15:17:03.805Z,0.95
2023-04-22T15:18:04.435Z,0.95
2023-04-22T15:19:04.610Z,0.36
2023-04-22T15:20:03.721Z,1.05
2023-04-22T15:21:04.343Z,0.79